logo tempoitalia

Diretta Meteo Abilene Dyess, Stati Uniti (USA)domenica 30 agosto ore 23:55

Mappa
Sereno 30 °C Sereno 24 Ore: T.min 26 T.max 38
Ponente Sud Km/h 24 Punto di rugiada: 15 °C Umidità: 40% Visibilità: 10 Km
Il sole sorge alle: 07:13 Il sole tramonta alle: 20:06
30 Agosto 2026 23:55 tempo osservato: Sereno Sereno 30 40 1014 vento: Nord S 24
30 Agosto 2026 22:55 tempo osservato: Sereno Sereno 31 35 1014 vento: Nord S/SE 24
30 Agosto 2026 21:55 tempo osservato: Sereno Sereno 32 33 1013 vento: Nord S/SE 18.5
30 Agosto 2026 20:55 tempo osservato: Sereno Sereno 34 28 1012 vento: Nord SE 20.3
30 Agosto 2026 19:55 tempo osservato: Sereno Sereno 35 24 1011 vento: Nord S 20.3
30 Agosto 2026 18:55 tempo osservato: Sereno Sereno 36 23 1012 vento: Nord S 18.5
30 Agosto 2026 17:55 tempo osservato: Sereno Sereno 38 21 1012 vento: Nord S 18.5
30 Agosto 2026 16:55 tempo osservato: Nuvoloso Nuvoloso 38 22 1012 vento: Nord S/SE 16.7
30 Agosto 2026 15:55 tempo osservato: Sereno Sereno 38 24 1012 vento: Nord S/SE 24
30 Agosto 2026 15:13 tempo osservato: Sereno Sereno 37 25 1014 vento: Nord SE 24
30 Agosto 2026 14:57 tempo osservato: Sereno Sereno 37 25 1014 vento: Nord S 18.5
30 Agosto 2026 14:55 tempo osservato: Sereno Sereno 37 25 1014 vento: Nord S/SE 22.2
30 Agosto 2026 14:49 tempo osservato: Poco Nuvoloso Poco Nuvoloso 37 25 1014 vento: Nord S/SE 20.3
30 Agosto 2026 13:55 tempo osservato: Poco Nuvoloso Poco Nuvoloso 36 30 1015 vento: Nord S 20.3
30 Agosto 2026 13:02 tempo osservato: Sereno Sereno 35 34 1016 vento: Nord S 20.3
30 Agosto 2026 12:55 tempo osservato: Sereno Sereno 35 34 1016 vento: Nord S 18.5
30 Agosto 2026 11:55 tempo osservato: Sereno Sereno 34 38 1016 vento: Nord S/SO 22.2
30 Agosto 2026 10:55 tempo osservato: Sereno Sereno 33 41 1017 vento: Nord S 25.9
30 Agosto 2026 09:55 tempo osservato: Sereno Sereno 30 51 1017 vento: Nord S/SO 20.3
30 Agosto 2026 08:55 tempo osservato: Sereno Sereno 28 58 1017 vento: Nord S 18.5
30 Agosto 2026 07:55 tempo osservato: Sereno Sereno 26 61 1016 vento: Nord S/SO 16.7
30 Agosto 2026 06:55 tempo osservato: Sereno Sereno 26 61 1015 vento: Nord S/SO 16.7
30 Agosto 2026 05:55 tempo osservato: Sereno Sereno 27 54 1015 vento: Nord S/SO 14.8
30 Agosto 2026 04:55 tempo osservato: Sereno Sereno 27 50 1015 vento: Nord S 16.7
30 Agosto 2026 03:55 tempo osservato: Sereno Sereno 28 48 1015 vento: Nord S 18.5
30 Agosto 2026 02:55 tempo osservato: Sereno Sereno 28 48 1015 vento: Nord S 16.7
30 Agosto 2026 01:55 tempo osservato: Sereno Sereno 29 45 1015 vento: Nord S 20.3
30 Agosto 2026 00:55 tempo osservato: Sereno Sereno 29 45 1015 vento: Nord S 24